Terminal Aerodrome Forecast
Issued by NWS

Home | Current Version | Previous Version | Text Only | Print | Product List | Glossary On
Versions: 1 2 3 4 5 6 7 8 9 10 11 12 13 14 15 16 17 18 19 20 21 22 23 24 25 26 27 28 29 30
000
FTUS43 KLOT 072326
TAFORD
TAF
KORD 072326Z 0800/0906 26014G22KT P6SM SCT020 BKN120
     FM081400 27016G26KT P6SM -SHSN BKN025
     FM090100 29012G18KT P6SM BKN025=

USA.gov is the U.S. government's official web portal to all federal, state and local government web resources and services.